createdAt,value
2022-11-29T00:00:52.563Z,7.40
2022-11-29T00:05:02.823Z,7.40
2022-11-29T00:09:18.946Z,7.40
2022-11-29T00:13:31.927Z,7.40
2022-11-29T00:17:43.228Z,7.30
2022-11-29T00:21:55.187Z,6.90
2022-11-29T00:26:08.943Z,6.70
2022-11-29T00:30:23.940Z,6.70
2022-11-29T00:34:34.162Z,6.70
2022-11-29T00:38:47.346Z,6.70
2022-11-29T00:42:58.944Z,6.90
2022-11-29T00:47:17.530Z,6.80
2022-11-29T00:51:28.606Z,6.60
2022-11-29T00:55:42.325Z,6.70
2022-11-29T00:59:57.965Z,6.90
2022-11-29T01:04:15.305Z,7.00
2022-11-29T01:08:31.104Z,7.20
2022-11-29T01:12:44.829Z,7.40
2022-11-29T01:16:57.127Z,7.30
2022-11-29T01:21:20.467Z,7.30
2022-11-29T01:25:33.586Z,7.20
2022-11-29T01:29:47.808Z,7.20
2022-11-29T01:34:02.476Z,7.30
2022-11-29T01:38:19.551Z,7.40
2022-11-29T01:42:32.485Z,7.40
2022-11-29T01:46:56.187Z,7.30
2022-11-29T01:51:09.828Z,7.40
2022-11-29T01:55:33.087Z,7.40
2022-11-29T01:59:57.008Z,7.30
2022-11-29T02:04:10.287Z,7.40
2022-11-29T02:08:28.750Z,7.30
2022-11-29T02:13:27.849Z,7.10
2022-11-29T02:27:45.546Z,7.20
2022-11-29T02:43:19.691Z,7.10
2022-11-29T02:47:57.175Z,6.90
2022-11-29T02:57:59.792Z,6.60
2022-11-29T04:13:12.587Z,7.10
2022-11-29T04:49:49.990Z,6.90
2022-11-29T04:54:09.753Z,7.00
2022-11-29T05:03:34.391Z,7.00
2022-11-29T05:24:08.231Z,7.30
2022-11-29T05:55:15.547Z,7.20
2022-11-29T07:19:59.190Z,6.50
2022-11-29T07:24:30.310Z,6.50
2022-11-29T07:34:20.091Z,6.40
2022-11-29T07:39:00.973Z,6.50
2022-11-29T07:43:34.710Z,6.70
2022-11-29T07:47:55.611Z,6.80
2022-11-29T07:57:02.948Z,6.50
2022-11-29T08:01:16.292Z,6.20
2022-11-29T08:20:54.989Z,6.30
2022-11-29T08:25:09.508Z,6.60
2022-11-29T08:29:20.033Z,6.80
2022-11-29T08:33:34.908Z,6.90
2022-11-29T08:37:51.531Z,7.00
2022-11-29T08:42:11.677Z,7.20
2022-11-29T08:46:21.312Z,7.40
2022-11-29T08:50:31.133Z,7.60
2022-11-29T08:54:41.751Z,7.80
2022-11-29T08:58:53.290Z,7.90
2022-11-29T09:03:35.009Z,8.00
2022-11-29T09:07:44.827Z,8.20
2022-11-29T09:17:17.206Z,8.50
2022-11-29T09:21:35.426Z,8.60
2022-11-29T09:25:51.506Z,8.70
2022-11-29T09:30:10.985Z,8.80
2022-11-29T09:34:21.446Z,8.90
2022-11-29T09:38:32.866Z,9.00
2022-11-29T09:42:56.828Z,9.10
2022-11-29T09:47:26.547Z,9.20
2022-11-29T09:51:58.188Z,9.30
2022-11-29T10:30:53.505Z,10.60
2022-11-29T10:44:50.897Z,11.00
2022-11-29T10:54:57.590Z,11.30
2022-11-29T11:57:19.329Z,13.10
2022-11-29T12:01:57.391Z,13.30
2022-11-29T12:11:36.293Z,13.40
2022-11-29T12:20:52.612Z,13.60
2022-11-29T12:25:16.670Z,13.60
2022-11-29T12:29:36.930Z,13.60
2022-11-29T12:38:45.374Z,13.50
2022-11-29T12:43:05.229Z,13.40
2022-11-29T12:48:01.392Z,13.60
2022-11-29T12:52:26.951Z,13.70
2022-11-29T12:56:43.872Z,13.80
2022-11-29T13:01:06.931Z,13.80
2022-11-29T13:05:30.232Z,13.80
2022-11-29T13:10:04.731Z,13.80
2022-11-29T13:51:41.891Z,13.40
2022-11-29T13:56:44.353Z,13.40
2022-11-29T14:01:21.786Z,13.40
2022-11-29T14:05:40.293Z,13.30
2022-11-29T14:10:06.801Z,13.10
2022-11-29T14:14:27.372Z,13.10
2022-11-29T14:19:08.050Z,13.10
2022-11-29T14:23:47.176Z,13.10
2022-11-29T15:39:44.672Z,11.50
2022-11-29T16:04:19.572Z,11.00
2022-11-29T16:09:04.270Z,10.80
